Terminal Aerodrome Forecast
Issued by NWS

Home | Current Version | Previous Version | Text Only | Print | Product List | Glossary On
Versions: 1 2 3 4 5 6 7 8 9 10 11 12 13 14 15 16 17 18 19 20 21 22
000
FTUS44 KLZK 051100
TAFLLQ
TAF
KLLQ 051140Z 0512/0612 35010G20KT 1SM -SNPL BR BKN007 OVC015
      TEMPO 0512/0515 4SM -SN BR SCT012 BKN025
     FM051500 01010KT 6SM BR SCT020 BKN035
     FM051700 03009KT P6SM SCT150
     FM060100 00000KT P6SM SKC=

USA.gov is the U.S. government's official web portal to all federal, state and local government web resources and services.